sensor_id;sensor_type;location;lat;lon;timestamp;pressure;altitude;pressure_sealevel;temperature;humidity
51452;BME280;37521;52.020;-1.740;2023-09-19T00:00:56;99004.31;;;9.28;100.00
51452;BME280;37521;52.020;-1.740;2023-09-19T00:03:24;99008.91;;;9.24;100.00
51452;BME280;37521;52.020;-1.740;2023-09-19T00:05:53;99003.66;;;9.24;100.00
51452;BME280;37521;52.020;-1.740;2023-09-19T00:08:22;99006.09;;;9.27;100.00
51452;BME280;37521;52.020;-1.740;2023-09-19T00:10:51;99000.09;;;9.25;100.00
51452;BME280;37521;52.020;-1.740;2023-09-19T00:13:20;98993.88;;;9.26;100.00
51452;BME280;37521;52.020;-1.740;2023-09-19T00:15:49;98994.81;;;9.25;100.00
51452;BME280;37521;52.020;-1.740;2023-09-19T00:18:20;99004.41;;;9.26;100.00
51452;BME280;37521;52.020;-1.740;2023-09-19T00:20:49;98994.97;;;9.22;100.00
51452;BME280;37521;52.020;-1.740;2023-09-19T00:23:19;98991.00;;;9.15;100.00
51452;BME280;37521;52.020;-1.740;2023-09-19T00:25:48;98991.59;;;9.20;100.00
51452;BME280;37521;52.020;-1.740;2023-09-19T00:28:17;98995.56;;;9.27;100.00
51452;BME280;37521;52.020;-1.740;2023-09-19T00:30:47;98987.50;;;9.31;100.00
51452;BME280;37521;52.020;-1.740;2023-09-19T00:33:19;98982.03;;;9.34;100.00
51452;BME280;37521;52.020;-1.740;2023-09-19T00:35:48;98982.97;;;9.33;100.00
51452;BME280;37521;52.020;-1.740;2023-09-19T00:38:17;98970.56;;;9.35;100.00
51452;BME280;37521;52.020;-1.740;2023-09-19T00:40:48;98968.78;;;9.35;100.00
51452;BME280;37521;52.020;-1.740;2023-09-19T00:43:18;98977.38;;;9.39;100.00
51452;BME280;37521;52.020;-1.740;2023-09-19T00:45:49;98978.13;;;9.41;100.00
51452;BME280;37521;52.020;-1.740;2023-09-19T00:48:20;98971.75;;;9.45;100.00
51452;BME280;37521;52.020;-1.740;2023-09-19T00:50:50;98970.06;;;9.44;100.00
51452;BME280;37521;52.020;-1.740;2023-09-19T00:53:21;98989.34;;;9.44;100.00
51452;BME280;37521;52.020;-1.740;2023-09-19T00:55:55;98985.16;;;9.40;100.00
51452;BME280;37521;52.020;-1.740;2023-09-19T00:58:24;98977.53;;;9.36;100.00
51452;BME280;37521;52.020;-1.740;2023-09-19T01:00:53;98977.53;;;9.36;100.00
51452;BME280;37521;52.020;-1.740;2023-09-19T01:03:24;98969.81;;;9.33;100.00
51452;BME280;37521;52.020;-1.740;2023-09-19T01:05:53;98959.47;;;9.30;100.00
51452;BME280;37521;52.020;-1.740;2023-09-19T01:08:21;98958.34;;;9.34;100.00
51452;BME280;37521;52.020;-1.740;2023-09-19T01:10:52;98953.66;;;9.39;100.00
51452;BME280;37521;52.020;-1.740;2023-09-19T01:13:27;98943.78;;;9.42;100.00
51452;BME280;37521;52.020;-1.740;2023-09-19T01:16:03;98947.53;;;9.38;100.00
51452;BME280;37521;52.020;-1.740;2023-09-19T01:18:52;98954.94;;;9.32;100.00
51452;BME280;37521;52.020;-1.740;2023-09-19T01:21:28;98950.97;;;9.24;100.00
51452;BME280;37521;52.020;-1.740;2023-09-19T01:27:22;98942.56;;;9.18;100.00
51452;BME280;37521;52.020;-1.740;2023-09-19T01:30:06;98933.84;;;9.17;100.00
51452;BME280;37521;52.020;-1.740;2023-09-19T01:32:36;98940.69;;;9.20;100.00
51452;BME280;37521;52.020;-1.740;2023-09-19T01:35:06;98954.72;;;9.20;100.00
51452;BME280;37521;52.020;-1.740;2023-09-19T01:37:39;98953.88;;;9.20;100.00
51452;BME280;37521;52.020;-1.740;2023-09-19T01:40:13;98948.84;;;9.15;100.00
51452;BME280;37521;52.020;-1.740;2023-09-19T01:42:48;98935.88;;;9.12;100.00
51452;BME280;37521;52.020;-1.740;2023-09-19T01:45:28;98932.22;;;9.15;100.00
51452;BME280;37521;52.020;-1.740;2023-09-19T01:48:08;98930.41;;;9.15;100.00
51452;BME280;37521;52.020;-1.740;2023-09-19T01:50:44;98919.47;;;9.23;100.00
51452;BME280;37521;52.020;-1.740;2023-09-19T01:53:24;98922.41;;;9.33;100.00
51452;BME280;37521;52.020;-1.740;2023-09-19T01:55:55;98917.34;;;9.44;100.00
51452;BME280;37521;52.020;-1.740;2023-09-19T01:58:29;98921.97;;;9.54;100.00
51452;BME280;37521;52.020;-1.740;2023-09-19T02:01:03;98932.16;;;9.61;100.00
51452;BME280;37521;52.020;-1.740;2023-09-19T02:03:34;98932.06;;;9.62;100.00
51452;BME280;37521;52.020;-1.740;2023-09-19T02:06:04;98938.28;;;9.61;100.00
51452;BME280;37521;52.020;-1.740;2023-09-19T02:08:39;98925.44;;;9.55;100.00
51452;BME280;37521;52.020;-1.740;2023-09-19T02:11:07;98926.75;;;9.48;100.00
51452;BME280;37521;52.020;-1.740;2023-09-19T02:13:36;98935.13;;;9.40;100.00
51452;BME280;37521;52.020;-1.740;2023-09-19T02:16:06;98930.97;;;9.36;100.00
51452;BME280;37521;52.020;-1.740;2023-09-19T02:18:38;98927.84;;;9.30;100.00
51452;BME280;37521;52.020;-1.740;2023-09-19T02:21:07;98928.13;;;9.25;100.00
51452;BME280;37521;52.020;-1.740;2023-09-19T02:23:37;98919.72;;;9.18;100.00
51452;BME280;37521;52.020;-1.740;2023-09-19T02:26:07;98921.78;;;9.13;100.00
51452;BME280;37521;52.020;-1.740;2023-09-19T02:28:35;98925.34;;;9.12;100.00
51452;BME280;37521;52.020;-1.740;2023-09-19T02:31:05;98919.03;;;9.15;100.00
51452;BME280;37521;52.020;-1.740;2023-09-19T02:33:34;98911.06;;;9.16;100.00
51452;BME280;37521;52.020;-1.740;2023-09-19T02:36:05;98918.78;;;9.19;100.00
51452;BME280;37521;52.020;-1.740;2023-09-19T02:38:34;98903.72;;;9.21;100.00
51452;BME280;37521;52.020;-1.740;2023-09-19T02:41:04;98910.53;;;9.25;100.00
51452;BME280;37521;52.020;-1.740;2023-09-19T02:43:32;98897.09;;;9.30;100.00
51452;BME280;37521;52.020;-1.740;2023-09-19T02:46:03;98896.06;;;9.33;100.00
51452;BME280;37521;52.020;-1.740;2023-09-19T02:48:34;98887.03;;;9.37;100.00
51452;BME280;37521;52.020;-1.740;2023-09-19T02:51:03;98886.66;;;9.43;100.00
51452;BME280;37521;52.020;-1.740;2023-09-19T02:53:32;98885.44;;;9.48;100.00
51452;BME280;37521;52.020;-1.740;2023-09-19T02:56:00;98886.97;;;9.52;100.00
51452;BME280;37521;52.020;-1.740;2023-09-19T02:58:31;98875.78;;;9.63;100.00
51452;BME280;37521;52.020;-1.740;2023-09-19T03:01:08;98878.81;;;9.71;100.00
51452;BME280;37521;52.020;-1.740;2023-09-19T03:03:40;98867.97;;;9.76;100.00
51452;BME280;37521;52.020;-1.740;2023-09-19T03:06:08;98858.75;;;9.83;100.00
51452;BME280;37521;52.020;-1.740;2023-09-19T03:08:37;98858.56;;;9.86;100.00
51452;BME280;37521;52.020;-1.740;2023-09-19T03:11:06;98852.06;;;9.92;100.00
51452;BME280;37521;52.020;-1.740;2023-09-19T03:13:40;98851.69;;;9.98;100.00
51452;BME280;37521;52.020;-1.740;2023-09-19T03:16:10;98849.06;;;9.98;100.00
51452;BME280;37521;52.020;-1.740;2023-09-19T03:18:44;98836.81;;;9.97;100.00
51452;BME280;37521;52.020;-1.740;2023-09-19T03:21:12;98837.66;;;9.97;100.00
51452;BME280;37521;52.020;-1.740;2023-09-19T03:23:41;98833.31;;;9.96;100.00
51452;BME280;37521;52.020;-1.740;2023-09-19T03:26:12;98829.94;;;9.94;100.00
51452;BME280;37521;52.020;-1.740;2023-09-19T03:28:43;98837.94;;;9.93;100.00
51452;BME280;37521;52.020;-1.740;2023-09-19T03:31:14;98827.78;;;9.87;100.00
51452;BME280;37521;52.020;-1.740;2023-09-19T03:33:44;98827.97;;;9.83;100.00
51452;BME280;37521;52.020;-1.740;2023-09-19T03:36:12;98825.41;;;9.82;100.00
51452;BME280;37521;52.020;-1.740;2023-09-19T03:38:42;98816.75;;;9.80;100.00
51452;BME280;37521;52.020;-1.740;2023-09-19T03:41:10;98822.13;;;9.78;100.00
51452;BME280;37521;52.020;-1.740;2023-09-19T03:43:42;98811.59;;;9.78;100.00
51452;BME280;37521;52.020;-1.740;2023-09-19T03:46:10;98812.34;;;9.80;100.00
51452;BME280;37521;52.020;-1.740;2023-09-19T03:48:40;98808.75;;;9.81;100.00
51452;BME280;37521;52.020;-1.740;2023-09-19T03:51:11;98805.16;;;9.82;100.00
51452;BME280;37521;52.020;-1.740;2023-09-19T03:53:39;98806.94;;;9.82;100.00
51452;BME280;37521;52.020;-1.740;2023-09-19T03:56:09;98814.97;;;9.80;100.00
51452;BME280;37521;52.020;-1.740;2023-09-19T03:58:37;98810.44;;;9.82;100.00
51452;BME280;37521;52.020;-1.740;2023-09-19T04:01:07;98790.84;;;9.87;100.00
51452;BME280;37521;52.020;-1.740;2023-09-19T04:03:36;98792.53;;;9.88;100.00
51452;BME280;37521;52.020;-1.740;2023-09-19T04:06:15;98794.25;;;9.89;100.00
51452;BME280;37521;52.020;-1.740;2023-09-19T04:08:44;98792.53;;;9.88;100.00
51452;BME280;37521;52.020;-1.740;2023-09-19T04:11:13;98790.22;;;9.83;100.00
51452;BME280;37521;52.020;-1.740;2023-09-19T04:13:42;98777.97;;;9.82;100.00
51452;BME280;37521;52.020;-1.740;2023-09-19T04:16:10;98768.19;;;9.84;100.00
51452;BME280;37521;52.020;-1.740;2023-09-19T04:18:39;98773.34;;;9.86;100.00
51452;BME280;37521;52.020;-1.740;2023-09-19T04:21:08;98764.31;;;9.90;100.00
51452;BME280;37521;52.020;-1.740;2023-09-19T04:23:39;98755.47;;;9.91;100.00
51452;BME280;37521;52.020;-1.740;2023-09-19T04:26:08;98756.31;;;9.91;100.00
51452;BME280;37521;52.020;-1.740;2023-09-19T04:28:36;98752.72;;;9.92;100.00
51452;BME280;37521;52.020;-1.740;2023-09-19T04:31:05;98761.47;;;9.93;100.00
51452;BME280;37521;52.020;-1.740;2023-09-19T04:33:35;98760.53;;;9.94;100.00
51452;BME280;37521;52.020;-1.740;2023-09-19T04:36:04;98750.81;;;9.94;100.00
51452;BME280;37521;52.020;-1.740;2023-09-19T04:38:55;98757.72;;;9.97;100.00
51452;BME280;37521;52.020;-1.740;2023-09-19T04:41:24;98762.56;;;10.03;100.00
51452;BME280;37521;52.020;-1.740;2023-09-19T04:43:53;98766.72;;;10.07;100.00
51452;BME280;37521;52.020;-1.740;2023-09-19T04:46:23;98762.28;;;10.07;100.00
51452;BME280;37521;52.020;-1.740;2023-09-19T04:48:51;98765.75;;;10.08;100.00
51452;BME280;37521;52.020;-1.740;2023-09-19T04:51:20;98752.19;;;10.14;100.00
51452;BME280;37521;52.020;-1.740;2023-09-19T04:53:49;98762.22;;;10.22;100.00
51452;BME280;37521;52.020;-1.740;2023-09-19T04:56:18;98751.63;;;10.23;100.00
51452;BME280;37521;52.020;-1.740;2023-09-19T04:58:48;98757.53;;;10.27;100.00
51452;BME280;37521;52.020;-1.740;2023-09-19T05:01:16;98744.91;;;10.32;100.00
51452;BME280;37521;52.020;-1.740;2023-09-19T05:03:44;98740.06;;;10.39;100.00
51452;BME280;37521;52.020;-1.740;2023-09-19T05:06:16;98736.25;;;10.43;100.00
51452;BME280;37521;52.020;-1.740;2023-09-19T05:08:44;98728.16;;;10.46;100.00
51452;BME280;37521;52.020;-1.740;2023-09-19T05:11:13;98714.03;;;10.47;100.00
51452;BME280;37521;52.020;-1.740;2023-09-19T05:13:43;98709.03;;;10.42;100.00
51452;BME280;37521;52.020;-1.740;2023-09-19T05:16:11;98701.63;;;10.34;100.00
51452;BME280;37521;52.020;-1.740;2023-09-19T05:18:40;98701.19;;;10.28;100.00
51452;BME280;37521;52.020;-1.740;2023-09-19T05:21:09;98697.13;;;10.22;100.00
51452;BME280;37521;52.020;-1.740;2023-09-19T05:23:37;98685.09;;;10.18;100.00
51452;BME280;37521;52.020;-1.740;2023-09-19T05:26:06;98688.69;;;10.17;100.00
51452;BME280;37521;52.020;-1.740;2023-09-19T05:28:34;98685.94;;;10.19;100.00
51452;BME280;37521;52.020;-1.740;2023-09-19T05:31:06;98661.00;;;10.24;100.00
51452;BME280;37521;52.020;-1.740;2023-09-19T05:33:35;98665.31;;;10.25;100.00
51452;BME280;37521;52.020;-1.740;2023-09-19T05:36:04;98654.38;;;10.31;100.00
51452;BME280;37521;52.020;-1.740;2023-09-19T05:38:32;98639.81;;;10.39;100.00
51452;BME280;37521;52.020;-1.740;2023-09-19T05:41:01;98648.69;;;10.50;100.00
51452;BME280;37521;52.020;-1.740;2023-09-19T05:43:29;98648.25;;;10.56;100.00
51452;BME280;37521;52.020;-1.740;2023-09-19T05:45:59;98640.25;;;10.58;100.00
51452;BME280;37521;52.020;-1.740;2023-09-19T05:48:29;98628.84;;;10.57;100.00
51452;BME280;37521;52.020;-1.740;2023-09-19T05:50:58;98623.34;;;10.60;100.00
51452;BME280;37521;52.020;-1.740;2023-09-19T05:53:28;98621.25;;;10.66;100.00
51452;BME280;37521;52.020;-1.740;2023-09-19T05:55:56;98611.31;;;10.69;100.00
51452;BME280;37521;52.020;-1.740;2023-09-19T05:58:28;98603.31;;;10.71;100.00
51452;BME280;37521;52.020;-1.740;2023-09-19T06:00:56;98604.16;;;10.71;100.00
51452;BME280;37521;52.020;-1.740;2023-09-19T06:03:24;98600.56;;;10.72;100.00
51452;BME280;37521;52.020;-1.740;2023-09-19T06:05:54;98602.97;;;10.75;100.00
51452;BME280;37521;52.020;-1.740;2023-09-19T06:08:24;98594.84;;;10.78;100.00
51452;BME280;37521;52.020;-1.740;2023-09-19T06:10:53;98576.25;;;10.80;100.00
51452;BME280;37521;52.020;-1.740;2023-09-19T06:13:21;98594.63;;;10.81;100.00
51452;BME280;37521;52.020;-1.740;2023-09-19T06:15:50;98590.84;;;10.85;100.00
51452;BME280;37521;52.020;-1.740;2023-09-19T06:18:18;98576.44;;;10.89;100.00
51452;BME280;37521;52.020;-1.740;2023-09-19T06:20:48;98588.50;;;10.94;100.00
51452;BME280;37521;52.020;-1.740;2023-09-19T06:23:20;98582.25;;;10.95;100.00
51452;BME280;37521;52.020;-1.740;2023-09-19T06:25:49;98582.97;;;10.97;100.00
51452;BME280;37521;52.020;-1.740;2023-09-19T06:28:18;98583.63;;;11.00;100.00
51452;BME280;37521;52.020;-1.740;2023-09-19T06:30:51;98576.81;;;11.09;100.00
51452;BME280;37521;52.020;-1.740;2023-09-19T06:33:20;98573.03;;;11.13;100.00
51452;BME280;37521;52.020;-1.740;2023-09-19T06:35:49;98561.50;;;11.14;100.00
51452;BME280;37521;52.020;-1.740;2023-09-19T06:38:21;98559.69;;;11.14;100.00
51452;BME280;37521;52.020;-1.740;2023-09-19T06:40:50;98554.31;;;11.16;100.00
51452;BME280;37521;52.020;-1.740;2023-09-19T06:43:19;98555.78;;;11.20;100.00
51452;BME280;37521;52.020;-1.740;2023-09-19T06:45:47;98559.91;;;11.24;100.00
51452;BME280;37521;52.020;-1.740;2023-09-19T06:48:15;98568.56;;;11.26;100.00
51452;BME280;37521;52.020;-1.740;2023-09-19T06:50:44;98552.47;;;11.29;100.00
51452;BME280;37521;52.020;-1.740;2023-09-19T06:53:15;98549.38;;;11.35;100.00
51452;BME280;37521;52.020;-1.740;2023-09-19T06:55:45;98553.25;;;11.42;100.00
51452;BME280;37521;52.020;-1.740;2023-09-19T06:58:14;98565.91;;;11.50;100.00
51452;BME280;37521;52.020;-1.740;2023-09-19T07:00:43;98579.31;;;11.60;100.00
51452;BME280;37521;52.020;-1.740;2023-09-19T07:03:13;98585.13;;;11.65;100.00
51452;BME280;37521;52.020;-1.740;2023-09-19T07:05:43;98583.81;;;11.70;100.00
51452;BME280;37521;52.020;-1.740;2023-09-19T07:08:11;98549.34;;;11.72;100.00
51452;BME280;37521;52.020;-1.740;2023-09-19T07:10:41;98549.84;;;11.77;100.00
51452;BME280;37521;52.020;-1.740;2023-09-19T07:13:17;98547.81;;;11.81;100.00
51452;BME280;37521;52.020;-1.740;2023-09-19T07:15:46;98559.03;;;11.84;100.00
51452;BME280;37521;52.020;-1.740;2023-09-19T07:18:15;98551.56;;;11.89;100.00
51452;BME280;37521;52.020;-1.740;2023-09-19T07:20:45;98551.13;;;11.95;100.00
51452;BME280;37521;52.020;-1.740;2023-09-19T07:23:16;98552.59;;;11.99;100.00
51452;BME280;37521;52.020;-1.740;2023-09-19T07:25:45;98564.84;;;12.00;100.00
51452;BME280;37521;52.020;-1.740;2023-09-19T07:28:17;98539.03;;;12.04;100.00
51452;BME280;37521;52.020;-1.740;2023-09-19T07:30:46;98552.84;;;12.08;100.00
51452;BME280;37521;52.020;-1.740;2023-09-19T07:33:14;98550.00;;;12.11;100.00
51452;BME280;37521;52.020;-1.740;2023-09-19T07:35:45;98554.19;;;12.13;100.00
51452;BME280;37521;52.020;-1.740;2023-09-19T07:38:14;98554.91;;;12.15;100.00
51452;BME280;37521;52.020;-1.740;2023-09-19T07:40:43;98549.50;;;12.17;100.00
51452;BME280;37521;52.020;-1.740;2023-09-19T07:43:12;98548.44;;;12.19;100.00
51452;BME280;37521;52.020;-1.740;2023-09-19T07:45:43;98565.16;;;12.20;100.00
51452;BME280;37521;52.020;-1.740;2023-09-19T07:48:15;98568.75;;;12.19;100.00
51452;BME280;37521;52.020;-1.740;2023-09-19T07:50:44;98599.31;;;12.23;100.00
51452;BME280;37521;52.020;-1.740;2023-09-19T07:53:12;98576.50;;;12.33;100.00
51452;BME280;37521;52.020;-1.740;2023-09-19T07:55:43;98574.34;;;12.38;100.00
51452;BME280;37521;52.020;-1.740;2023-09-19T07:58:15;98587.34;;;12.41;100.00
51452;BME280;37521;52.020;-1.740;2023-09-19T08:00:45;98577.72;;;12.40;100.00
51452;BME280;37521;52.020;-1.740;2023-09-19T08:03:13;98572.16;;;12.43;100.00
51452;BME280;37521;52.020;-1.740;2023-09-19T08:05:44;98578.34;;;12.44;100.00
51452;BME280;37521;52.020;-1.740;2023-09-19T08:08:13;98573.88;;;12.44;100.00
51452;BME280;37521;52.020;-1.740;2023-09-19T08:10:42;98578.78;;;12.49;100.00
51452;BME280;37521;52.020;-1.740;2023-09-19T08:13:14;98582.06;;;12.52;100.00
51452;BME280;37521;52.020;-1.740;2023-09-19T08:15:46;98574.00;;;12.54;100.00
51452;BME280;37521;52.020;-1.740;2023-09-19T08:18:15;98561.47;;;12.56;100.00
51452;BME280;37521;52.020;-1.740;2023-09-19T08:20:49;98560.41;;;12.59;100.00
51452;BME280;37521;52.020;-1.740;2023-09-19T08:23:18;98553.28;;;12.70;100.00
51452;BME280;37521;52.020;-1.740;2023-09-19T08:25:47;98558.75;;;12.91;100.00
51452;BME280;37521;52.020;-1.740;2023-09-19T08:28:16;98565.81;;;13.13;100.00
51452;BME280;37521;52.020;-1.740;2023-09-19T08:30:47;98568.38;;;13.26;100.00
51452;BME280;37521;52.020;-1.740;2023-09-19T08:33:16;98561.00;;;13.29;100.00
51452;BME280;37521;52.020;-1.740;2023-09-19T08:35:45;98549.34;;;13.21;100.00
51452;BME280;37521;52.020;-1.740;2023-09-19T08:38:13;98545.19;;;13.17;100.00
51452;BME280;37521;52.020;-1.740;2023-09-19T08:40:42;98558.34;;;13.18;100.00
51452;BME280;37521;52.020;-1.740;2023-09-19T08:43:11;98541.59;;;13.18;100.00
51452;BME280;37521;52.020;-1.740;2023-09-19T08:45:39;98538.84;;;13.19;100.00
51452;BME280;37521;52.020;-1.740;2023-09-19T08:48:19;98539.06;;;13.16;100.00
51452;BME280;37521;52.020;-1.740;2023-09-19T08:50:49;98538.22;;;13.16;100.00
51452;BME280;37521;52.020;-1.740;2023-09-19T08:53:26;98552.91;;;13.20;100.00
51452;BME280;37521;52.020;-1.740;2023-09-19T08:56:00;98533.31;;;13.22;100.00
51452;BME280;37521;52.020;-1.740;2023-09-19T08:58:33;98531.25;;;13.26;100.00
51452;BME280;37521;52.020;-1.740;2023-09-19T09:01:03;98543.28;;;13.30;100.00
51452;BME280;37521;52.020;-1.740;2023-09-19T09:03:36;98548.72;;;13.28;100.00
51452;BME280;37521;52.020;-1.740;2023-09-19T09:06:07;98567.97;;;13.30;100.00
51452;BME280;37521;52.020;-1.740;2023-09-19T09:08:38;98550.28;;;13.31;100.00
51452;BME280;37521;52.020;-1.740;2023-09-19T09:11:07;98554.72;;;13.30;100.00
51452;BME280;37521;52.020;-1.740;2023-09-19T09:13:38;98560.16;;;13.29;100.00
51452;BME280;37521;52.020;-1.740;2023-09-19T09:16:08;98561.84;;;13.30;100.00
51452;BME280;37521;52.020;-1.740;2023-09-19T09:18:39;98569.44;;;13.34;100.00
51452;BME280;37521;52.020;-1.740;2023-09-19T09:21:08;98552.41;;;13.37;100.00
51452;BME280;37521;52.020;-1.740;2023-09-19T09:23:40;98551.56;;;13.36;100.00
51452;BME280;37521;52.020;-1.740;2023-09-19T09:26:08;98558.31;;;13.41;100.00
51452;BME280;37521;52.020;-1.740;2023-09-19T09:28:45;98565.09;;;13.45;100.00
51452;BME280;37521;52.020;-1.740;2023-09-19T09:31:24;98552.41;;;13.48;100.00
51452;BME280;37521;52.020;-1.740;2023-09-19T09:33:55;98560.97;;;13.52;100.00
51452;BME280;37521;52.020;-1.740;2023-09-19T09:36:34;98552.88;;;13.53;100.00
51452;BME280;37521;52.020;-1.740;2023-09-19T09:39:04;98559.00;;;13.54;100.00
51452;BME280;37521;52.020;-1.740;2023-09-19T09:41:46;98560.84;;;13.53;100.00
51452;BME280;37521;52.020;-1.740;2023-09-19T09:44:15;98549.97;;;13.56;100.00
51452;BME280;37521;52.020;-1.740;2023-09-19T09:46:46;98548.75;;;13.60;100.00
51452;BME280;37521;52.020;-1.740;2023-09-19T09:49:33;98551.88;;;13.66;100.00
51452;BME280;37521;52.020;-1.740;2023-09-19T09:52:03;98540.16;;;13.68;100.00
51452;BME280;37521;52.020;-1.740;2023-09-19T09:54:38;98560.53;;;13.68;100.00
51452;BME280;37521;52.020;-1.740;2023-09-19T09:57:10;98554.63;;;13.64;100.00
51452;BME280;37521;52.020;-1.740;2023-09-19T09:59:48;98552.84;;;13.65;100.00
51452;BME280;37521;52.020;-1.740;2023-09-19T10:02:26;98549.94;;;13.68;100.00
51452;BME280;37521;52.020;-1.740;2023-09-19T10:04:58;98558.34;;;13.73;100.00
51452;BME280;37521;52.020;-1.740;2023-09-19T10:07:36;98543.28;;;13.73;100.00
51452;BME280;37521;52.020;-1.740;2023-09-19T10:10:11;98547.56;;;13.85;100.00
51452;BME280;37521;52.020;-1.740;2023-09-19T10:12:49;98555.97;;;13.90;100.00
51452;BME280;37521;52.020;-1.740;2023-09-19T10:15:26;98546.66;;;13.96;100.00
51452;BME280;37521;52.020;-1.740;2023-09-19T10:17:59;98551.31;;;14.04;100.00
51452;BME280;37521;52.020;-1.740;2023-09-19T10:20:30;98551.66;;;14.10;100.00
51452;BME280;37521;52.020;-1.740;2023-09-19T10:23:07;98545.06;;;14.05;100.00
51452;BME280;37521;52.020;-1.740;2023-09-19T10:25:41;98534.84;;;14.00;100.00
51452;BME280;37521;52.020;-1.740;2023-09-19T10:28:11;98542.19;;;13.97;100.00
51452;BME280;37521;52.020;-1.740;2023-09-19T10:30:44;98533.66;;;13.93;100.00
51452;BME280;37521;52.020;-1.740;2023-09-19T10:33:14;98530.56;;;13.88;100.00
51452;BME280;37521;52.020;-1.740;2023-09-19T10:35:46;98521.88;;;13.86;100.00
51452;BME280;37521;52.020;-1.740;2023-09-19T10:38:17;98517.59;;;13.74;100.00
51452;BME280;37521;52.020;-1.740;2023-09-19T10:40:50;98517.63;;;13.62;100.00
51452;BME280;37521;52.020;-1.740;2023-09-19T10:43:20;98521.63;;;13.57;100.00
51452;BME280;37521;52.020;-1.740;2023-09-19T10:45:50;98524.19;;;13.58;100.00
51452;BME280;37521;52.020;-1.740;2023-09-19T10:48:20;98528.97;;;13.65;100.00
51452;BME280;37521;52.020;-1.740;2023-09-19T10:51:02;98534.63;;;13.71;100.00
51452;BME280;37521;52.020;-1.740;2023-09-19T10:53:42;98531.56;;;13.76;100.00
51452;BME280;37521;52.020;-1.740;2023-09-19T10:56:18;98526.25;;;13.76;100.00
51452;BME280;37521;52.020;-1.740;2023-09-19T10:58:48;98535.19;;;13.75;100.00
51452;BME280;37521;52.020;-1.740;2023-09-19T11:01:17;98533.25;;;13.77;100.00
51452;BME280;37521;52.020;-1.740;2023-09-19T11:03:45;98525.19;;;13.78;100.00
51452;BME280;37521;52.020;-1.740;2023-09-19T11:06:17;98527.44;;;13.83;100.00
51452;BME280;37521;52.020;-1.740;2023-09-19T11:09:00;98537.81;;;13.86;100.00
51452;BME280;37521;52.020;-1.740;2023-09-19T11:11:50;98518.50;;;13.84;100.00
51452;BME280;37521;52.020;-1.740;2023-09-19T11:14:30;98522.13;;;13.83;100.00
51452;BME280;37521;52.020;-1.740;2023-09-19T11:17:30;98508.75;;;13.84;100.00
51452;BME280;37521;52.020;-1.740;2023-09-19T11:20:24;98510.16;;;13.88;100.00
51452;BME280;37521;52.020;-1.740;2023-09-19T11:23:20;98518.81;;;13.90;100.00
51452;BME280;37521;52.020;-1.740;2023-09-19T11:25:57;98519.44;;;13.94;100.00
51452;BME280;37521;52.020;-1.740;2023-09-19T11:28:33;98513.84;;;13.97;100.00
51452;BME280;37521;52.020;-1.740;2023-09-19T11:34:53;98526.59;;;14.03;100.00
51452;BME280;37521;52.020;-1.740;2023-09-19T11:37:59;98526.81;;;14.11;100.00
51452;BME280;37521;52.020;-1.740;2023-09-19T11:40:44;98526.56;;;14.14;100.00
51452;BME280;37521;52.020;-1.740;2023-09-19T11:43:28;98527.97;;;14.18;100.00
51452;BME280;37521;52.020;-1.740;2023-09-19T11:46:05;98522.91;;;14.15;100.00
51452;BME280;37521;52.020;-1.740;2023-09-19T11:48:34;98517.63;;;14.15;100.00
51452;BME280;37521;52.020;-1.740;2023-09-19T11:51:15;98519.56;;;14.13;100.00
51452;BME280;37521;52.020;-1.740;2023-09-19T11:53:50;98507.00;;;14.15;100.00
51452;BME280;37521;52.020;-1.740;2023-09-19T11:56:21;98512.06;;;14.18;100.00
51452;BME280;37521;52.020;-1.740;2023-09-19T11:58:53;98529.66;;;14.20;100.00
51452;BME280;37521;52.020;-1.740;2023-09-19T12:01:24;98521.56;;;14.21;100.00
51452;BME280;37521;52.020;-1.740;2023-09-19T12:03:58;98517.41;;;14.28;100.00
51452;BME280;37521;52.020;-1.740;2023-09-19T12:06:27;98520.53;;;14.33;100.00
51452;BME280;37521;52.020;-1.740;2023-09-19T12:08:57;98517.50;;;14.38;100.00
51452;BME280;37521;52.020;-1.740;2023-09-19T12:11:29;98517.06;;;14.42;100.00
51452;BME280;37521;52.020;-1.740;2023-09-19T12:14:02;98515.88;;;14.47;100.00
51452;BME280;37521;52.020;-1.740;2023-09-19T12:16:31;98510.88;;;14.53;100.00
51452;BME280;37521;52.020;-1.740;2023-09-19T12:19:19;98520.53;;;14.54;100.00
51452;BME280;37521;52.020;-1.740;2023-09-19T12:21:57;98509.38;;;14.60;100.00
51452;BME280;37521;52.020;-1.740;2023-09-19T12:24:27;98501.56;;;14.68;100.00
51452;BME280;37521;52.020;-1.740;2023-09-19T12:27:11;98515.03;;;14.77;100.00
51452;BME280;37521;52.020;-1.740;2023-09-19T12:29:44;98518.81;;;14.84;100.00
51452;BME280;37521;52.020;-1.740;2023-09-19T12:32:13;98516.59;;;14.89;100.00
51452;BME280;37521;52.020;-1.740;2023-09-19T12:34:51;98507.66;;;14.90;100.00
51452;BME280;37521;52.020;-1.740;2023-09-19T12:37:20;98513.69;;;14.92;100.00
51452;BME280;37521;52.020;-1.740;2023-09-19T12:39:51;98529.50;;;14.93;100.00
51452;BME280;37521;52.020;-1.740;2023-09-19T12:42:23;98540.38;;;14.90;100.00
51452;BME280;37521;52.020;-1.740;2023-09-19T12:44:55;98522.63;;;14.91;100.00
51452;BME280;37521;52.020;-1.740;2023-09-19T12:47:24;98541.50;;;14.88;100.00
51452;BME280;37521;52.020;-1.740;2023-09-19T12:50:06;98523.03;;;14.86;100.00
51452;BME280;37521;52.020;-1.740;2023-09-19T12:52:41;98523.03;;;14.86;100.00
51452;BME280;37521;52.020;-1.740;2023-09-19T12:55:20;98524.03;;;14.95;100.00
51452;BME280;37521;52.020;-1.740;2023-09-19T12:57:58;98524.19;;;15.03;100.00
51452;BME280;37521;52.020;-1.740;2023-09-19T13:00:37;98523.41;;;15.12;100.00
51452;BME280;37521;52.020;-1.740;2023-09-19T13:03:15;98526.22;;;15.20;100.00
51452;BME280;37521;52.020;-1.740;2023-09-19T13:05:52;98520.75;;;15.22;100.00
51452;BME280;37521;52.020;-1.740;2023-09-19T13:08:27;98525.53;;;15.28;100.00
51452;BME280;37521;52.020;-1.740;2023-09-19T13:11:04;98525.69;;;15.36;100.00
51452;BME280;37521;52.020;-1.740;2023-09-19T13:13:40;98525.97;;;15.43;100.00